createdAt,value
2022-09-01T00:00:13.417Z,13.99
2022-09-01T00:03:01.453Z,13.99
2022-09-01T00:05:32.837Z,14.00
2022-09-01T00:08:01.375Z,14.01
2022-09-01T00:10:30.039Z,14.01
2022-09-01T00:12:59.133Z,14.02
2022-09-01T00:15:27.997Z,14.02
2022-09-01T00:17:56.342Z,14.02
2022-09-01T00:20:24.901Z,14.02
2022-09-01T00:22:53.274Z,14.02
2022-09-01T00:25:24.794Z,14.02
2022-09-01T00:27:53.304Z,14.01
2022-09-01T00:30:22.488Z,14.00
2022-09-01T00:32:51.028Z,13.99
2022-09-01T00:35:20.392Z,13.98
2022-09-01T00:37:48.857Z,13.97
2022-09-01T00:40:18.788Z,13.95
2022-09-01T00:42:49.003Z,13.93
2022-09-01T00:45:17.424Z,13.91
2022-09-01T00:47:45.777Z,13.90
2022-09-01T00:50:18.168Z,13.90
2022-09-01T00:52:55.003Z,13.89
2022-09-01T00:55:33.289Z,13.89
2022-09-01T00:58:03.969Z,13.88
2022-09-01T01:00:40.848Z,13.86
2022-09-01T01:03:13.819Z,13.86
2022-09-01T01:05:55.757Z,13.85
2022-09-01T01:08:34.544Z,13.85
2022-09-01T01:11:17.922Z,13.86
2022-09-01T01:14:12.409Z,13.85
2022-09-01T01:16:47.073Z,13.85
2022-09-01T01:20:03.253Z,13.86
2022-09-01T01:23:02.294Z,13.87
2022-09-01T01:25:44.307Z,13.88
2022-09-01T01:28:16.503Z,13.88
2022-09-01T01:30:52.438Z,13.89
2022-09-01T01:33:25.913Z,13.88
2022-09-01T01:35:57.526Z,13.88
2022-09-01T01:38:27.556Z,13.88
2022-09-01T01:40:56.376Z,13.88
2022-09-01T01:43:26.450Z,13.87
2022-09-01T01:46:02.886Z,13.87
2022-09-01T01:48:34.823Z,13.86
2022-09-01T01:51:05.846Z,13.86
2022-09-01T01:53:34.754Z,13.85
2022-09-01T01:56:03.617Z,13.84
2022-09-01T01:58:34.964Z,13.84
2022-09-01T02:01:03.735Z,13.84
2022-09-01T02:03:38.718Z,13.85
2022-09-01T02:06:12.095Z,13.86
2022-09-01T02:08:41.317Z,13.87
2022-09-01T02:11:09.637Z,13.87
2022-09-01T02:13:37.993Z,13.88
2022-09-01T02:16:13.131Z,13.89
2022-09-01T02:18:48.925Z,13.89
2022-09-01T02:21:21.290Z,13.89
2022-09-01T02:24:02.173Z,13.90
2022-09-01T02:26:43.015Z,13.92
2022-09-01T02:29:19.179Z,13.94
2022-09-01T02:31:53.692Z,13.97
2022-09-01T02:34:24.803Z,13.98
2022-09-01T02:36:56.012Z,13.99
2022-09-01T02:39:29.689Z,14.00
2022-09-01T02:41:58.580Z,14.01
2022-09-01T02:44:29.317Z,14.03
2022-09-01T02:46:58.930Z,14.04
2022-09-01T02:49:28.728Z,14.05
2022-09-01T02:52:01.844Z,14.05
2022-09-01T02:54:32.614Z,14.05
2022-09-01T02:57:01.677Z,14.04
2022-09-01T02:59:31.002Z,14.03
2022-09-01T03:01:59.573Z,14.03
2022-09-01T03:04:27.986Z,14.02
2022-09-01T03:06:58.925Z,14.02
2022-09-01T03:09:28.188Z,14.02
2022-09-01T03:11:56.576Z,14.01
2022-09-01T03:14:26.066Z,14.02
2022-09-01T03:16:54.533Z,14.02
2022-09-01T03:19:23.206Z,14.03
2022-09-01T03:21:51.803Z,14.03
2022-09-01T03:24:20.239Z,14.02
2022-09-01T03:26:50.827Z,14.02
2022-09-01T03:29:20.610Z,14.01
2022-09-01T03:31:49.600Z,14.01
2022-09-01T03:34:20.842Z,14.01
2022-09-01T03:36:50.922Z,14.01
2022-09-01T03:39:20.045Z,14.01
2022-09-01T03:41:48.801Z,14.00
2022-09-01T03:44:17.323Z,14.00
2022-09-01T03:46:46.916Z,14.00
2022-09-01T03:49:25.308Z,13.99
2022-09-01T03:51:54.600Z,13.99
2022-09-01T03:54:30.667Z,13.99
2022-09-01T03:57:00.012Z,13.99
2022-09-01T03:59:30.210Z,13.99
2022-09-01T04:02:00.437Z,13.99
2022-09-01T04:04:33.090Z,13.98
2022-09-01T04:07:01.644Z,13.98
2022-09-01T04:09:30.020Z,13.97
2022-09-01T04:11:58.798Z,13.98
2022-09-01T04:14:29.212Z,13.99
2022-09-01T04:17:17.291Z,13.98
2022-09-01T04:19:45.846Z,13.98
2022-09-01T04:22:15.675Z,14.00
2022-09-01T04:24:45.946Z,14.01
2022-09-01T04:27:18.280Z,14.03
2022-09-01T04:29:48.631Z,14.04
2022-09-01T04:32:17.026Z,14.06
2022-09-01T04:34:45.371Z,14.08
2022-09-01T04:37:18.966Z,14.09
2022-09-01T04:39:56.292Z,14.10
2022-09-01T04:42:29.186Z,14.13
2022-09-01T04:45:00.109Z,14.15
2022-09-01T04:47:35.604Z,14.18
2022-09-01T04:50:14.058Z,14.21
2022-09-01T04:52:47.928Z,14.24
2022-09-01T04:55:19.202Z,14.27
2022-09-01T04:57:49.635Z,14.32
2022-09-01T05:00:22.728Z,14.35
2022-09-01T05:03:04.707Z,14.41
2022-09-01T05:05:54.143Z,14.46
2022-09-01T05:08:24.491Z,14.51
2022-09-01T05:10:57.016Z,14.55
2022-09-01T05:13:29.710Z,14.62
2022-09-01T05:16:13.182Z,14.67
2022-09-01T05:18:47.917Z,14.73
2022-09-01T05:21:22.329Z,14.79
2022-09-01T05:23:51.904Z,14.85
2022-09-01T05:26:31.735Z,14.92
2022-09-01T05:29:13.536Z,14.99
2022-09-01T05:31:45.590Z,15.07
2022-09-01T05:34:20.112Z,15.13
2022-09-01T05:36:50.854Z,15.20
2022-09-01T05:39:20.933Z,15.27
2022-09-01T05:41:49.941Z,15.35
2022-09-01T05:44:18.911Z,15.42
2022-09-01T05:46:47.747Z,15.49
2022-09-01T05:49:18.713Z,15.57
2022-09-01T05:51:51.796Z,15.63
2022-09-01T05:54:25.314Z,15.70
2022-09-01T05:57:12.615Z,15.77
2022-09-01T05:59:53.779Z,15.84
2022-09-01T06:02:26.379Z,15.93
2022-09-01T06:04:56.995Z,16.02
2022-09-01T06:07:28.610Z,16.10
2022-09-01T06:09:57.272Z,16.18
2022-09-01T06:12:28.151Z,16.26
2022-09-01T06:14:58.423Z,16.35
2022-09-01T06:17:30.041Z,16.45
2022-09-01T06:20:13.619Z,16.53
2022-09-01T06:22:42.118Z,16.60
2022-09-01T06:25:11.060Z,16.69
2022-09-01T06:27:42.585Z,16.79
2022-09-01T06:30:20.121Z,16.89
2022-09-01T06:32:52.266Z,16.98
2022-09-01T06:35:25.212Z,17.07
2022-09-01T06:37:58.456Z,17.15
2022-09-01T06:40:36.089Z,17.25
2022-09-01T06:43:08.430Z,17.34
2022-09-01T06:45:45.213Z,17.42
2022-09-01T06:48:16.343Z,17.50
2022-09-01T06:53:35.862Z,17.68
2022-09-01T06:56:04.254Z,17.73
2022-09-01T06:58:38.316Z,17.81
2022-09-01T07:01:16.083Z,17.88
2022-09-01T07:03:51.221Z,17.96
2022-09-01T07:09:50.015Z,18.16
2022-09-01T07:12:35.287Z,18.30
2022-09-01T07:18:03.505Z,18.53
2022-09-01T07:21:36.783Z,18.66
2022-09-01T07:24:08.688Z,18.85
2022-09-01T07:26:47.173Z,19.06
2022-09-01T07:29:21.855Z,19.22
2022-09-01T07:35:11.701Z,19.48
2022-09-01T07:43:33.501Z,19.87
2022-09-01T07:46:36.668Z,19.98
2022-09-01T07:49:29.619Z,20.14
2022-09-01T07:51:45.581Z,20.29
2022-09-01T07:54:14.093Z,20.35
2022-09-01T07:56:42.745Z,20.41
2022-09-01T07:59:15.303Z,20.48
2022-09-01T08:01:44.329Z,20.54
2022-09-01T08:04:13.583Z,20.64
2022-09-01T08:06:42.112Z,20.72
2022-09-01T08:09:11.982Z,20.78
2022-09-01T08:12:02.051Z,20.83
2022-09-01T08:14:34.773Z,20.88
2022-09-01T08:17:34.088Z,20.93
2022-09-01T08:19:53.680Z,20.94
2022-09-01T08:22:24.414Z,20.94
2022-09-01T08:24:53.117Z,20.95
2022-09-01T08:27:21.575Z,21.04
2022-09-01T08:29:50.013Z,21.16
2022-09-01T08:32:18.440Z,21.30
2022-09-01T08:34:46.808Z,21.45
2022-09-01T08:37:15.095Z,21.63
2022-09-01T08:39:43.587Z,21.75
2022-09-01T08:42:20.943Z,21.82
2022-09-01T08:45:20.505Z,21.94
2022-09-01T08:48:28.721Z,22.10
2022-09-01T08:50:45.180Z,22.29
2022-09-01T08:53:43.988Z,22.39
2022-09-01T08:56:14.379Z,22.45
2022-09-01T08:58:42.948Z,22.53
2022-09-01T09:01:47.661Z,22.57
2022-09-01T09:04:49.370Z,22.79
2022-09-01T09:08:15.922Z,23.09
2022-09-01T09:11:21.520Z,23.45
2022-09-01T09:14:15.731Z,23.65
2022-09-01T09:16:53.915Z,23.65
2022-09-01T09:19:36.255Z,23.79
2022-09-01T09:22:12.766Z,23.99
2022-09-01T09:25:17.530Z,24.24
2022-09-01T09:28:00.529Z,24.58
2022-09-01T09:30:32.282Z,24.75
2022-09-01T09:33:48.610Z,24.77
2022-09-01T09:36:35.820Z,24.65
2022-09-01T09:39:13.796Z,24.39
2022-09-01T09:41:44.345Z,24.15
2022-09-01T09:44:32.915Z,23.93
2022-09-01T09:47:01.457Z,23.67
2022-09-01T09:49:41.426Z,23.45
2022-09-01T09:52:19.081Z,23.29
2022-09-01T09:55:01.748Z,23.15
2022-09-01T09:57:32.286Z,23.05
2022-09-01T10:00:25.945Z,22.97
2022-09-01T10:03:04.664Z,22.90
2022-09-01T10:05:53.358Z,22.88
2022-09-01T10:08:28.674Z,22.85
2022-09-01T10:10:58.828Z,22.80
2022-09-01T10:13:31.404Z,22.72
2022-09-01T10:16:13.133Z,22.68
2022-09-01T10:18:45.179Z,22.68
2022-09-01T10:21:30.587Z,22.81
2022-09-01T10:24:20.406Z,22.99
2022-09-01T10:26:57.327Z,23.35
2022-09-01T10:29:50.833Z,23.94
2022-09-01T10:32:38.255Z,24.68
2022-09-01T10:35:20.074Z,25.35
2022-09-01T10:37:50.083Z,26.00
2022-09-01T10:40:29.854Z,26.28
2022-09-01T10:43:40.361Z,26.28
2022-09-01T10:46:15.608Z,26.14
2022-09-01T10:48:48.813Z,25.86
2022-09-01T10:51:21.118Z,25.60
2022-09-01T10:54:03.700Z,25.35
2022-09-01T10:56:52.011Z,25.32
2022-09-01T10:59:32.844Z,25.64
2022-09-01T11:02:26.378Z,26.10
2022-09-01T11:04:58.716Z,26.69
2022-09-01T11:08:00.569Z,27.22
2022-09-01T11:10:34.766Z,27.89
2022-09-01T11:13:49.080Z,28.40
2022-09-01T11:16:49.443Z,28.85
2022-09-01T11:19:31.026Z,29.11
2022-09-01T11:22:18.178Z,29.33
2022-09-01T11:25:12.964Z,29.59
2022-09-01T11:27:50.503Z,29.94
2022-09-01T11:30:31.226Z,30.26
2022-09-01T11:33:27.027Z,30.43
2022-09-01T11:36:07.061Z,30.59
2022-09-01T11:38:53.265Z,30.48
2022-09-01T11:41:45.590Z,30.13
2022-09-01T11:44:38.532Z,29.54
2022-09-01T11:47:14.572Z,29.07
2022-09-01T11:49:55.248Z,29.10
2022-09-01T11:52:30.717Z,29.47
2022-09-01T11:55:00.264Z,29.94
2022-09-01T11:57:38.178Z,30.37
2022-09-01T12:00:14.103Z,30.88
2022-09-01T12:02:55.056Z,31.29
2022-09-01T12:05:31.277Z,31.35
2022-09-01T12:08:05.432Z,30.90
2022-09-01T12:10:40.181Z,30.86
2022-09-01T12:13:15.747Z,31.15
2022-09-01T12:16:06.876Z,31.56
2022-09-01T12:18:47.489Z,31.53
2022-09-01T12:21:38.416Z,31.64
2022-09-01T12:24:18.977Z,31.91
2022-09-01T12:26:50.433Z,32.13
2022-09-01T12:29:19.527Z,32.27
2022-09-01T12:31:52.625Z,32.04
2022-09-01T12:34:59.431Z,31.59
2022-09-01T12:37:28.097Z,31.44
2022-09-01T12:39:59.336Z,31.50
2022-09-01T12:42:41.528Z,31.80
2022-09-01T12:45:13.299Z,32.28
2022-09-01T12:47:48.043Z,32.76
2022-09-01T12:50:16.964Z,33.09
2022-09-01T12:52:52.487Z,32.86
2022-09-01T12:58:29.482Z,32.44
2022-09-01T13:01:16.084Z,32.70
2022-09-01T13:04:23.056Z,33.21
2022-09-01T13:06:52.764Z,33.85
2022-09-01T13:09:21.150Z,34.18
2022-09-01T13:12:06.590Z,34.30
2022-09-01T13:14:35.562Z,34.61
2022-09-01T13:17:04.422Z,34.99
2022-09-01T13:19:32.730Z,35.43
2022-09-01T13:22:01.074Z,35.73
2022-09-01T13:24:31.620Z,36.02
2022-09-01T13:29:50.393Z,36.74
2022-09-01T13:32:22.057Z,37.06
2022-09-01T13:34:53.477Z,37.01
2022-09-01T13:37:22.957Z,36.51
2022-09-01T13:39:51.461Z,35.80
2022-09-01T13:42:19.875Z,35.07
2022-09-01T13:44:52.551Z,34.32
2022-09-01T13:47:29.194Z,33.99
2022-09-01T13:50:10.005Z,34.16
2022-09-01T13:52:43.482Z,34.53
2022-09-01T13:55:17.347Z,34.72
2022-09-01T13:57:45.707Z,35.09
2022-09-01T14:00:18.764Z,35.53
2022-09-01T14:02:50.414Z,36.06
2022-09-01T14:05:23.147Z,36.52
2022-09-01T14:07:52.980Z,36.95
2022-09-01T14:10:24.153Z,37.31
2022-09-01T14:12:52.742Z,37.10
2022-09-01T14:15:26.589Z,36.31
2022-09-01T14:17:58.124Z,35.92
2022-09-01T14:20:36.918Z,36.06
2022-09-01T14:23:08.707Z,36.40
2022-09-01T14:25:43.042Z,36.84
2022-09-01T14:28:11.984Z,37.40
2022-09-01T14:30:45.486Z,38.00
2022-09-01T14:33:14.520Z,38.62
2022-09-01T14:35:47.784Z,39.11
2022-09-01T14:38:17.195Z,39.44
2022-09-01T14:40:49.435Z,39.55
2022-09-01T14:43:18.460Z,39.87
2022-09-01T14:45:48.059Z,40.21
2022-09-01T14:48:18.995Z,40.49
2022-09-01T14:50:49.959Z,40.72
2022-09-01T14:53:19.492Z,40.94
2022-09-01T14:55:50.516Z,41.35
2022-09-01T14:58:21.168Z,41.66
2022-09-01T15:00:50.166Z,41.74
2022-09-01T15:03:22.772Z,41.94
2022-09-01T15:05:53.082Z,42.21
2022-09-01T15:08:23.510Z,42.54
2022-09-01T15:10:51.896Z,42.98
2022-09-01T15:13:20.497Z,43.37
2022-09-01T15:15:48.938Z,43.82
2022-09-01T15:18:17.302Z,44.17
2022-09-01T15:20:50.964Z,44.52
2022-09-01T15:23:23.688Z,44.77
2022-09-01T15:25:54.151Z,44.76
2022-09-01T15:28:22.872Z,44.81
2022-09-01T15:31:04.470Z,45.09
2022-09-01T15:33:33.441Z,45.46
2022-09-01T15:36:01.952Z,45.94
2022-09-01T15:38:31.173Z,46.31
2022-09-01T15:41:01.187Z,46.50
2022-09-01T15:43:30.375Z,46.70
2022-09-01T15:46:00.588Z,46.68
2022-09-01T15:48:35.099Z,46.75
2022-09-01T15:51:45.726Z,46.97
2022-09-01T15:54:22.190Z,47.03
2022-09-01T15:56:51.312Z,47.12
2022-09-01T15:59:20.499Z,47.27
2022-09-01T16:01:48.953Z,47.45
2022-09-01T16:04:19.851Z,47.64
2022-09-01T16:06:52.722Z,47.42
2022-09-01T16:09:21.262Z,47.43
2022-09-01T16:11:50.022Z,47.64
2022-09-01T16:14:21.422Z,47.77
2022-09-01T16:17:09.401Z,47.65
2022-09-01T16:20:13.678Z,47.40
2022-09-01T16:23:48.746Z,47.17
2022-09-01T16:26:20.444Z,46.87
2022-09-01T16:28:57.756Z,46.83
2022-09-01T16:31:33.028Z,46.81
2022-09-01T16:34:13.257Z,46.82
2022-09-01T16:36:57.389Z,46.79
2022-09-01T16:39:34.031Z,46.65
2022-09-01T16:42:49.252Z,46.52
2022-09-01T16:45:56.079Z,46.17
2022-09-01T16:48:42.328Z,45.62
2022-09-01T16:51:22.179Z,45.09
2022-09-01T16:54:42.579Z,44.48
2022-09-01T16:57:45.171Z,43.89
2022-09-01T17:00:35.215Z,43.32
2022-09-01T17:03:34.196Z,42.55
2022-09-01T17:06:29.152Z,40.46
2022-09-01T17:09:10.409Z,38.51
2022-09-01T17:11:49.187Z,36.89
2022-09-01T17:14:32.522Z,35.49
2022-09-01T17:17:17.896Z,34.19
2022-09-01T17:19:52.714Z,32.96
2022-09-01T17:22:21.754Z,31.96
2022-09-01T17:25:07.806Z,31.06
2022-09-01T17:27:54.326Z,30.19
2022-09-01T17:30:22.638Z,29.33
2022-09-01T17:33:28.514Z,28.63
2022-09-01T17:36:24.256Z,27.84
2022-09-01T17:39:14.240Z,27.11
2022-09-01T17:42:11.162Z,26.47
2022-09-01T17:44:56.363Z,25.81
2022-09-01T17:47:56.196Z,25.25
2022-09-01T17:50:39.848Z,24.62
2022-09-01T17:53:34.136Z,24.08
2022-09-01T17:56:21.402Z,23.58
2022-09-01T17:59:10.546Z,23.15
2022-09-01T18:02:10.077Z,22.73
2022-09-01T18:05:12.895Z,22.26
2022-09-01T18:08:00.623Z,21.78
2022-09-01T18:11:04.524Z,21.40
2022-09-01T18:13:53.963Z,21.04
2022-09-01T18:16:35.123Z,20.73
2022-09-01T18:19:12.282Z,20.48
2022-09-01T18:21:52.155Z,20.25
2022-09-01T18:24:43.610Z,20.04
2022-09-01T18:27:12.874Z,19.79
2022-09-01T18:29:42.475Z,19.60
2022-09-01T18:32:35.182Z,19.40
2022-09-01T18:35:31.945Z,19.15
2022-09-01T18:38:13.024Z,18.93
2022-09-01T18:41:29.569Z,18.74
2022-09-01T18:44:38.746Z,18.52
2022-09-01T18:47:14.511Z,18.31
2022-09-01T18:50:18.150Z,18.14
2022-09-01T18:53:17.509Z,17.96
2022-09-01T18:56:22.196Z,17.81
2022-09-01T18:59:14.550Z,17.67
2022-09-01T19:01:59.843Z,17.55
2022-09-01T19:04:35.790Z,17.43
2022-09-01T19:07:16.741Z,17.30
2022-09-01T19:10:18.438Z,17.17
2022-09-01T19:12:55.675Z,17.04
2022-09-01T19:15:56.993Z,16.93
2022-09-01T19:18:47.038Z,16.82
2022-09-01T19:21:24.640Z,16.71
2022-09-01T19:24:05.962Z,16.63
2022-09-01T19:26:44.849Z,16.53
2022-09-01T19:29:23.613Z,16.44
2022-09-01T19:32:02.420Z,16.37
2022-09-01T19:34:43.088Z,16.29
2022-09-01T19:37:12.538Z,16.21
2022-09-01T19:39:45.338Z,16.13
2022-09-01T19:42:47.224Z,16.06
2022-09-01T19:45:31.003Z,15.98
2022-09-01T19:48:26.615Z,15.89
2022-09-01T19:51:01.025Z,15.80
2022-09-01T19:54:01.467Z,15.72
2022-09-01T19:56:51.545Z,15.63
2022-09-01T19:59:58.130Z,15.54
2022-09-01T20:02:35.167Z,15.46
2022-09-01T20:05:38.851Z,15.37
2022-09-01T20:08:46.731Z,15.28
2022-09-01T20:11:36.815Z,15.18
2022-09-01T20:14:32.978Z,15.09
2022-09-01T20:17:07.979Z,15.01
2022-09-01T20:20:17.652Z,14.93
2022-09-01T20:23:10.605Z,14.84
2022-09-01T20:26:14.712Z,14.77
2022-09-01T20:29:12.484Z,14.68
2022-09-01T20:31:50.227Z,14.61
2022-09-01T20:34:35.204Z,14.55
2022-09-01T20:37:18.785Z,14.48
2022-09-01T20:40:04.342Z,14.42
2022-09-01T20:43:08.520Z,14.35
2022-09-01T20:45:38.608Z,14.28
2022-09-01T20:48:24.693Z,14.22
2022-09-01T20:51:18.480Z,14.15
2022-09-01T20:54:29.379Z,14.08
2022-09-01T20:57:36.227Z,13.99
2022-09-01T21:00:17.122Z,13.90
2022-09-01T21:03:20.726Z,13.84
2022-09-01T21:06:08.646Z,13.79
2022-09-01T21:08:50.976Z,13.75
2022-09-01T21:11:48.252Z,13.72
2022-09-01T21:14:31.349Z,13.70
2022-09-01T21:17:43.023Z,13.70
2022-09-01T21:20:52.873Z,13.68
2022-09-01T21:23:21.477Z,13.68
2022-09-01T21:25:50.053Z,13.67
2022-09-01T21:28:21.573Z,13.66
2022-09-01T21:30:54.167Z,13.66
2022-09-01T21:33:28.730Z,13.66
2022-09-01T21:35:59.831Z,13.66
2022-09-01T21:38:29.583Z,13.67
2022-09-01T21:41:01.741Z,13.68
2022-09-01T21:43:35.820Z,13.69
2022-09-01T21:46:06.221Z,13.69
2022-09-01T21:48:35.212Z,13.69
2022-09-01T21:51:06.629Z,13.70
2022-09-01T21:53:35.022Z,13.71
2022-09-01T21:56:04.102Z,13.73
2022-09-01T21:58:32.891Z,13.74
2022-09-01T22:01:01.896Z,13.75
2022-09-01T22:03:30.263Z,13.76
2022-09-01T22:05:58.672Z,13.77
2022-09-01T22:08:27.217Z,13.77
2022-09-01T22:10:55.927Z,13.78
2022-09-01T22:13:25.367Z,13.80
2022-09-01T22:15:55.291Z,13.81
2022-09-01T22:18:23.631Z,13.81
2022-09-01T22:21:01.272Z,13.82
2022-09-01T22:23:29.657Z,13.82
2022-09-01T22:25:58.129Z,13.82
2022-09-01T22:28:26.615Z,13.83
2022-09-01T22:30:54.974Z,13.82
2022-09-01T22:33:24.373Z,13.83
2022-09-01T22:35:56.086Z,13.82
2022-09-01T22:38:24.448Z,13.80
2022-09-01T22:40:57.292Z,13.77
2022-09-01T22:43:28.177Z,13.76
2022-09-01T22:45:58.473Z,13.73
2022-09-01T22:48:28.835Z,13.71
2022-09-01T22:50:57.471Z,13.68
2022-09-01T22:53:25.772Z,13.66
2022-09-01T22:55:54.760Z,13.63
2022-09-01T22:58:23.156Z,13.59
2022-09-01T23:00:56.087Z,13.57
2022-09-01T23:03:24.512Z,13.53
2022-09-01T23:06:08.082Z,13.52
2022-09-01T23:08:37.216Z,13.48
2022-09-01T23:11:07.521Z,13.46
2022-09-01T23:13:37.931Z,13.42
2022-09-01T23:16:10.022Z,13.39
2022-09-01T23:18:42.284Z,13.39
2022-09-01T23:21:13.235Z,13.38
2022-09-01T23:23:42.336Z,13.38
2022-09-01T23:26:13.867Z,13.37
2022-09-01T23:28:44.072Z,13.37
2022-09-01T23:31:20.385Z,13.36
2022-09-01T23:33:48.989Z,13.36
2022-09-01T23:36:20.589Z,13.36
2022-09-01T23:38:49.991Z,13.35
2022-09-01T23:41:23.822Z,13.34
2022-09-01T23:43:53.240Z,13.34
2022-09-01T23:46:28.592Z,13.33
2022-09-01T23:48:57.734Z,13.32
2022-09-01T23:51:26.464Z,13.30
2022-09-01T23:53:54.845Z,13.29
2022-09-01T23:56:27.080Z,13.27
2022-09-01T23:58:56.168Z,13.27
